Time;durP1;ratioP1;P1;durP2;ratioP2;P2;SDS_P1;SDS_P2;PMS_P1;PMS_P2;Temp;Humidity;BMP_temperature;BMP_pressure;BME280_temperature;BME280_humidity;BME280_pressure;Samples;Min_cycle;Max_cycle;Signal;HPM_P1;HPM_P2
2023/05/30 00:00:13;;;;;;;11.25;1.90;;;11.30;99.90;;;;;;4996477;28;20652;-67
2023/05/30 00:02:43;;;;;;;17.15;2.72;;;11.20;99.90;;;;;;5011579;28;20067;-66
2023/05/30 00:05:09;;;;;;;14.10;2.58;;;11.30;99.90;;;;;;4993297;28;20041;-67
2023/05/30 00:07:35;;;;;;;13.70;2.53;;;11.20;99.90;;;;;;4996209;28;20435;-67
2023/05/30 00:10:01;;;;;;;17.77;2.75;;;11.20;99.90;;;;;;5013665;28;20049;-67
2023/05/30 00:12:27;;;;;;;18.42;2.47;;;11.20;99.90;;;;;;4997214;28;20512;-67
2023/05/30 00:14:55;;;;;;;12.07;2.40;;;11.20;99.90;;;;;;4994483;28;20041;-67
2023/05/30 00:17:22;;;;;;;14.65;3.15;;;11.30;99.90;;;;;;5027545;28;20065;-67
2023/05/30 00:19:47;;;;;;;16.38;2.45;;;11.30;99.90;;;;;;5011728;28;20038;-67
2023/05/30 00:22:14;;;;;;;11.00;2.10;;;11.20;99.90;;;;;;5028639;28;20079;-67
2023/05/30 00:24:39;;;;;;;12.48;2.15;;;11.20;99.90;;;;;;5028210;28;20048;-66
2023/05/30 00:27:05;;;;;;;13.02;2.20;;;11.20;99.90;;;;;;4995418;28;20046;-66
2023/05/30 00:29:31;;;;;;;11.90;2.38;;;11.20;99.90;;;;;;4978281;28;20041;-67
2023/05/30 00:31:57;;;;;;;14.98;2.35;;;11.20;99.90;;;;;;4995593;28;20123;-67
2023/05/30 00:34:23;;;;;;;17.70;2.75;;;11.20;99.90;;;;;;4998328;28;20118;-67
2023/05/30 00:36:48;;;;;;;16.73;2.90;;;11.20;99.90;;;;;;5027407;28;21155;-67
2023/05/30 00:39:15;;;;;;;13.82;2.17;;;11.20;99.90;;;;;;5012003;28;20053;-67
2023/05/30 00:41:41;;;;;;;15.02;2.42;;;11.20;99.90;;;;;;4977811;28;20116;-66
2023/05/30 00:44:07;;;;;;;15.27;2.33;;;11.20;99.90;;;;;;4980836;28;20045;-67
2023/05/30 00:46:32;;;;;;;13.65;2.25;;;11.20;99.90;;;;;;4986927;28;20623;-67
2023/05/30 00:48:59;;;;;;;15.75;2.78;;;11.20;99.90;;;;;;4995192;28;20099;-66
2023/05/30 00:51:31;;;;;;;11.95;2.42;;;11.20;99.90;;;;;;4994002;28;20292;-66
2023/05/30 00:54:00;;;;;;;14.55;2.78;;;11.20;99.90;;;;;;5026758;28;20475;-67
2023/05/30 00:56:26;;;;;;;13.32;2.60;;;11.20;99.90;;;;;;4994924;28;20046;-67
2023/05/30 00:58:52;;;;;;;11.15;2.15;;;11.20;99.90;;;;;;5011708;28;20053;-66
2023/05/30 01:01:20;;;;;;;16.23;2.20;;;11.20;99.90;;;;;;5009449;28;20040;-66
2023/05/30 01:03:47;;;;;;;15.20;2.67;;;11.10;99.90;;;;;;4995510;28;20488;-66
2023/05/30 01:06:13;;;;;;;11.65;2.35;;;11.10;99.90;;;;;;5026468;28;20122;-66
2023/05/30 01:08:39;;;;;;;10.90;2.17;;;11.10;99.90;;;;;;4995696;28;20049;-67
2023/05/30 01:11:39;;;;;;;16.30;2.83;;;11.10;99.90;;;;;;4994561;28;20127;-66
2023/05/30 01:14:17;;;;;;;11.30;2.10;;;11.10;99.90;;;;;;4986279;28;20054;-68
2023/05/30 01:16:54;;;;;;;13.18;2.40;;;11.10;99.90;;;;;;4993610;28;20052;-67
2023/05/30 01:19:26;;;;;;;13.30;2.50;;;11.10;99.90;;;;;;4992993;28;20785;-67
2023/05/30 01:22:22;;;;;;;14.48;2.20;;;11.10;99.90;;;;;;5028100;28;20151;-67
2023/05/30 01:25:06;;;;;;;14.25;2.08;;;11.10;99.90;;;;;;4994490;28;20041;-67
2023/05/30 01:28:15;;;;;;;9.23;1.83;;;11.10;99.90;;;;;;5026234;28;20069;-67
2023/05/30 01:30:44;;;;;;;14.82;2.30;;;11.10;99.90;;;;;;5009585;28;20038;-67
2023/05/30 01:33:12;;;;;;;19.85;2.85;;;11.10;99.90;;;;;;5028384;28;20132;-67
2023/05/30 01:35:38;;;;;;;16.35;3.15;;;11.10;99.90;;;;;;4995978;28;20281;-66
2023/05/30 01:38:04;;;;;;;14.02;2.47;;;11.10;99.90;;;;;;4964071;28;20129;-67
2023/05/30 01:40:30;;;;;;;14.70;3.10;;;11.10;99.90;;;;;;5012137;28;20037;-67
2023/05/30 01:43:06;;;;;;;14.93;2.60;;;11.10;99.90;;;;;;4993346;28;20058;-66
2023/05/30 01:46:16;;;;;;;14.55;2.35;;;11.10;99.90;;;;;;5021188;28;20043;-66
2023/05/30 01:48:50;;;;;;;18.50;2.95;;;11.10;99.90;;;;;;4992527;28;20050;-66
2023/05/30 01:51:29;;;;;;;11.75;2.05;;;11.20;99.90;;;;;;5026227;28;20057;-67
2023/05/30 01:54:04;;;;;;;15.95;3.17;;;11.10;99.90;;;;;;5010098;28;20202;-67
2023/05/30 01:56:32;;;;;;;15.25;2.97;;;11.10;99.90;;;;;;4993951;28;20119;-66
2023/05/30 01:59:00;;;;;;;17.95;2.75;;;11.10;99.90;;;;;;4993047;28;20202;-67
2023/05/30 02:01:29;;;;;;;10.40;2.35;;;11.20;99.90;;;;;;5026033;28;20045;-66
2023/05/30 02:03:55;;;;;;;12.10;2.08;;;11.20;99.90;;;;;;4994650;28;20326;-67
2023/05/30 02:06:22;;;;;;;11.40;2.28;;;11.10;99.90;;;;;;4994114;28;20095;-67
2023/05/30 02:08:48;;;;;;;14.13;2.90;;;11.10;99.90;;;;;;4994175;28;20275;-67
2023/05/30 02:11:14;;;;;;;14.90;2.40;;;11.10;99.90;;;;;;4993290;28;20555;-67
2023/05/30 02:13:40;;;;;;;17.67;2.78;;;11.10;99.90;;;;;;4993354;28;20033;-67
2023/05/30 02:16:07;;;;;;;17.35;2.25;;;11.00;99.90;;;;;;4977705;28;20778;-67
2023/05/30 02:18:34;;;;;;;12.23;2.28;;;11.00;99.90;;;;;;4987377;28;20060;-67
2023/05/30 02:20:59;;;;;;;14.93;2.22;;;11.00;99.90;;;;;;5026301;28;20094;-67
2023/05/30 02:23:25;;;;;;;14.85;2.20;;;11.00;99.90;;;;;;4986544;28;20452;-67
2023/05/30 02:25:51;;;;;;;15.85;2.97;;;11.00;99.90;;;;;;5025791;28;20100;-67
2023/05/30 02:28:17;;;;;;;16.58;2.35;;;11.00;99.90;;;;;;4994155;28;20359;-67
2023/05/30 02:30:42;;;;;;;19.17;2.65;;;11.00;99.90;;;;;;4993734;28;20291;-67
2023/05/30 02:33:08;;;;;;;16.83;2.95;;;11.10;99.90;;;;;;4993703;28;20045;-67
2023/05/30 02:35:34;;;;;;;13.43;2.55;;;11.10;99.90;;;;;;4993497;28;20045;-67
2023/05/30 02:37:59;;;;;;;21.27;2.88;;;11.20;99.90;;;;;;4992698;28;20665;-67
2023/05/30 02:40:25;;;;;;;13.43;2.17;;;11.20;99.90;;;;;;5025076;28;20156;-68
2023/05/30 02:42:51;;;;;;;18.05;2.45;;;11.10;99.90;;;;;;5025658;28;20041;-67
2023/05/30 02:45:16;;;;;;;16.90;2.90;;;11.10;99.90;;;;;;4993395;28;20353;-67
2023/05/30 02:47:42;;;;;;;18.02;3.20;;;11.20;99.90;;;;;;4992435;28;20045;-67
2023/05/30 02:50:08;;;;;;;21.52;3.30;;;11.20;99.90;;;;;;4993341;28;20595;-67
2023/05/30 02:52:34;;;;;;;17.95;3.13;;;11.20;99.90;;;;;;5025528;28;20050;-67
2023/05/30 02:54:59;;;;;;;16.05;3.03;;;11.20;99.90;;;;;;5025541;28;20636;-67
2023/05/30 02:57:25;;;;;;;17.13;2.47;;;11.30;99.90;;;;;;4994074;28;20049;-67
2023/05/30 02:59:52;;;;;;;16.63;2.95;;;11.30;99.90;;;;;;4994473;28;21174;-67
2023/05/30 03:02:17;;;;;;;14.45;2.28;;;11.30;99.90;;;;;;4993270;28;20653;-67
2023/05/30 03:04:45;;;;;;;14.82;2.28;;;11.30;99.90;;;;;;5008294;28;20534;-68
2023/05/30 03:07:17;;;;;;;9.98;2.38;;;11.30;99.90;;;;;;5025067;28;20282;-67
2023/05/30 03:09:43;;;;;;;14.13;2.53;;;11.30;99.90;;;;;;5024005;28;20193;-67
2023/05/30 03:12:09;;;;;;;12.13;2.20;;;11.30;99.90;;;;;;4991501;28;20121;-67
2023/05/30 03:14:35;;;;;;;9.73;1.92;;;11.30;99.90;;;;;;4992359;28;20056;-67
2023/05/30 03:17:02;;;;;;;16.67;2.83;;;11.30;99.90;;;;;;4991428;28;20048;-67
2023/05/30 03:19:29;;;;;;;14.35;2.50;;;11.30;99.90;;;;;;4992294;28;20583;-67
2023/05/30 03:21:56;;;;;;;19.67;2.97;;;11.40;99.90;;;;;;4991903;28;20037;-67
2023/05/30 03:24:22;;;;;;;17.50;2.95;;;11.40;99.90;;;;;;4990236;28;20052;-67
2023/05/30 03:26:48;;;;;;;18.27;2.47;;;11.40;99.90;;;;;;4993169;28;20080;-67
2023/05/30 03:29:14;;;;;;;16.17;2.33;;;11.50;99.90;;;;;;5024457;28;20506;-67
2023/05/30 03:31:40;;;;;;;19.92;2.67;;;11.50;99.90;;;;;;4996873;28;20048;-67
2023/05/30 03:34:06;;;;;;;16.00;2.50;;;11.50;99.90;;;;;;4979268;28;20064;-67
2023/05/30 03:36:32;;;;;;;13.55;2.00;;;11.50;99.90;;;;;;4996056;28;20380;-67
2023/05/30 03:38:58;;;;;;;14.23;2.17;;;11.60;99.90;;;;;;4997367;28;20582;-67
2023/05/30 03:41:24;;;;;;;11.32;2.35;;;11.60;99.90;;;;;;4996438;28;20041;-67
2023/05/30 03:43:50;;;;;;;14.63;2.50;;;11.50;99.90;;;;;;4998939;28;20060;-67
2023/05/30 03:46:16;;;;;;;16.35;2.85;;;11.50;99.90;;;;;;4979256;28;20049;-67
2023/05/30 03:48:45;;;;;;;18.75;2.33;;;11.60;99.90;;;;;;4995543;28;21605;-67
2023/05/30 03:51:12;;;;;;;12.85;2.13;;;11.60;99.90;;;;;;5011622;28;20046;-67
2023/05/30 03:53:38;;;;;;;10.82;1.85;;;11.60;99.90;;;;;;4994470;28;20038;-67
2023/05/30 03:56:04;;;;;;;10.90;2.38;;;11.70;99.90;;;;;;4997446;28;20049;-67
2023/05/30 03:58:30;;;;;;;12.10;2.25;;;11.70;99.90;;;;;;5028698;28;20057;-67
2023/05/30 04:00:56;;;;;;;15.75;2.30;;;11.70;99.90;;;;;;4995435;28;20526;-67
2023/05/30 04:03:22;;;;;;;10.95;1.95;;;11.70;99.90;;;;;;4994964;28;20041;-67
2023/05/30 04:05:48;;;;;;;10.98;1.60;;;11.70;99.90;;;;;;5012866;28;20103;-67
2023/05/30 04:08:14;;;;;;;14.48;2.00;;;11.60;99.90;;;;;;4997496;28;20594;-67
2023/05/30 04:10:40;;;;;;;13.13;2.05;;;11.60;99.90;;;;;;4997173;28;20103;-67
2023/05/30 04:13:06;;;;;;;19.25;2.70;;;11.60;99.90;;;;;;4997269;28;20496;-67
2023/05/30 04:15:33;;;;;;;15.45;2.42;;;11.60;99.90;;;;;;4988168;28;20511;-67
2023/05/30 04:18:00;;;;;;;14.10;2.30;;;11.60;99.90;;;;;;4996022;28;20217;-67
2023/05/30 04:20:26;;;;;;;12.00;1.90;;;11.60;99.90;;;;;;4996193;28;20045;-67
2023/05/30 04:22:51;;;;;;;13.10;2.42;;;11.60;99.90;;;;;;5011880;28;20038;-67
2023/05/30 04:25:18;;;;;;;11.60;2.10;;;11.60;99.90;;;;;;4997171;28;20111;-67
2023/05/30 04:27:43;;;;;;;15.38;2.88;;;11.60;99.90;;;;;;4979690;28;20038;-67
2023/05/30 04:30:13;;;;;;;15.35;2.42;;;11.60;99.90;;;;;;4980774;28;20045;-67
2023/05/30 04:32:39;;;;;;;10.48;2.20;;;11.60;99.90;;;;;;4994631;28;20077;-67
2023/05/30 04:35:05;;;;;;;13.18;1.92;;;11.60;99.90;;;;;;4994735;28;20124;-67
2023/05/30 04:37:33;;;;;;;12.95;2.20;;;11.60;99.90;;;;;;5026983;28;20037;-67
2023/05/30 04:39:59;;;;;;;9.65;1.95;;;11.70;99.90;;;;;;5028301;28;20134;-67
2023/05/30 04:42:28;;;;;;;9.98;2.33;;;11.70;99.90;;;;;;4980094;28;20045;-67
2023/05/30 04:44:55;;;;;;;13.82;2.05;;;11.70;99.90;;;;;;4994028;28;20045;-67
2023/05/30 04:47:24;;;;;;;11.18;2.30;;;11.70;99.90;;;;;;5012490;28;20042;-67
2023/05/30 04:49:53;;;;;;;9.13;1.80;;;11.70;99.90;;;;;;4997096;28;20565;-67
2023/05/30 04:52:21;;;;;;;12.60;2.10;;;11.70;99.90;;;;;;5027558;28;20088;-67
2023/05/30 04:54:47;;;;;;;11.75;2.13;;;11.70;99.90;;;;;;5028150;28;20075;-67
2023/05/30 04:57:12;;;;;;;13.07;2.58;;;11.70;99.90;;;;;;4996499;28;20065;-66
2023/05/30 04:59:41;;;;;;;9.77;1.83;;;11.70;99.90;;;;;;5026657;28;20136;-67
2023/05/30 05:02:09;;;;;;;11.68;1.83;;;11.70;1.00;;;;;;4993922;28;20507;-67
2023/05/30 05:04:34;;;;;;;10.85;1.70;;;11.70;99.90;;;;;;5014074;28;20056;-67
2023/05/30 05:07:00;;;;;;;12.95;2.00;;;11.80;99.90;;;;;;4996222;28;20190;-67
2023/05/30 05:09:26;;;;;;;10.85;1.42;;;11.80;99.90;;;;;;5027846;28;20045;-67
2023/05/30 05:11:53;;;;;;;13.10;2.38;;;11.70;1.00;;;;;;5026072;28;20099;-67
2023/05/30 05:14:19;;;;;;;8.60;2.25;;;11.70;1.00;;;;;;4995374;28;20084;-67
2023/05/30 05:16:45;;;;;;;14.05;2.15;;;11.80;1.00;;;;;;4996684;28;20154;-66
2023/05/30 05:19:10;;;;;;;9.60;1.90;;;11.80;1.00;;;;;;5010219;28;20053;-67
2023/05/30 05:21:36;;;;;;;11.60;1.95;;;11.80;1.00;;;;;;4979581;28;21393;-68
2023/05/30 05:24:03;;;;;;;17.02;2.10;;;11.80;1.00;;;;;;5026774;28;20176;-67
2023/05/30 05:26:29;;;;;;;12.50;2.30;;;11.80;1.00;;;;;;4995232;28;20400;-67
2023/05/30 05:28:55;;;;;;;11.20;1.98;;;11.80;1.00;;;;;;5010208;28;20097;-67
2023/05/30 05:31:21;;;;;;;11.55;1.38;;;11.80;1.00;;;;;;4994269;28;20057;-67
2023/05/30 05:33:47;;;;;;;11.70;1.48;;;11.80;1.00;;;;;;4994984;28;20042;-67
2023/05/30 05:36:13;;;;;;;10.52;1.92;;;11.90;1.00;;;;;;4993839;28;20034;-67
2023/05/30 05:38:39;;;;;;;9.32;1.65;;;11.80;1.00;;;;;;4994144;28;20042;-67
2023/05/30 05:41:05;;;;;;;9.18;1.35;;;11.90;1.00;;;;;;4992862;28;20867;-67
2023/05/30 05:43:30;;;;;;;6.82;1.05;;;11.90;1.00;;;;;;5010174;28;20057;-67
2023/05/30 05:45:56;;;;;;;10.80;1.50;;;11.90;1.00;;;;;;4992503;28;20151;-66
2023/05/30 05:48:22;;;;;;;6.65;1.27;;;11.80;1.00;;;;;;5010663;28;20792;-67
2023/05/30 05:50:48;;;;;;;5.35;1.02;;;11.80;1.00;;;;;;5008873;28;20582;-67
2023/05/30 05:53:13;;;;;;;3.97;0.80;;;11.90;1.00;;;;;;5025833;28;20037;-67
2023/05/30 05:55:39;;;;;;;4.22;0.55;;;11.90;1.00;;;;;;4993604;28;20069;-66
2023/05/30 05:58:05;;;;;;;5.75;0.70;;;12.00;1.00;;;;;;4992610;28;20398;-66
2023/05/30 06:00:31;;;;;;;7.47;0.93;;;12.00;1.00;;;;;;4977839;28;20274;-67
2023/05/30 06:02:56;;;;;;;8.32;0.98;;;12.00;1.00;;;;;;4992180;28;20037;-67
2023/05/30 06:05:22;;;;;;;4.75;0.60;;;12.00;1.00;;;;;;5027034;28;20215;-67
2023/05/30 06:07:48;;;;;;;4.15;0.75;;;12.00;1.00;;;;;;5009054;28;20615;-67
2023/05/30 06:10:13;;;;;;;7.53;0.98;;;12.00;1.00;;;;;;4992364;28;20907;-66
2023/05/30 06:12:40;;;;;;;4.97;0.60;;;12.00;1.00;;;;;;4992670;28;20068;-67
2023/05/30 06:15:06;;;;;;;7.80;0.88;;;12.00;1.00;;;;;;5009718;28;20202;-67
2023/05/30 06:17:32;;;;;;;5.22;0.55;;;12.10;1.00;;;;;;5025844;28;20568;-67
2023/05/30 06:19:58;;;;;;;4.95;0.80;;;12.30;1.00;;;;;;4995695;28;20033;-67
2023/05/30 06:22:23;;;;;;;5.88;0.98;;;12.30;1.00;;;;;;4994414;28;20168;-66
2023/05/30 06:24:49;;;;;;;5.35;0.70;;;12.30;1.00;;;;;;4992950;28;20066;-67
2023/05/30 06:27:15;;;;;;;6.30;0.80;;;12.20;1.00;;;;;;5012077;28;20382;-67
2023/05/30 06:29:41;;;;;;;6.80;1.00;;;12.20;1.00;;;;;;5025384;28;20067;-67
2023/05/30 06:32:08;;;;;;;4.15;0.70;;;12.20;1.00;;;;;;4992204;28;20333;-67
2023/05/30 06:34:34;;;;;;;3.05;0.50;;;12.30;99.90;;;;;;4992548;28;20052;-66
2023/05/30 06:37:00;;;;;;;4.00;0.65;;;12.30;99.90;;;;;;5004562;28;20037;-67
2023/05/30 06:39:26;;;;;;;10.20;1.02;;;12.30;99.90;;;;;;4992161;28;20143;-67
2023/05/30 06:41:52;;;;;;;5.10;1.13;;;12.20;1.00;;;;;;5025681;28;20038;-67
2023/05/30 06:44:18;;;;;;;5.05;0.68;;;12.20;1.00;;;;;;4992184;28;20048;-67
2023/05/30 06:46:44;;;;;;;3.67;0.57;;;12.30;1.00;;;;;;4991484;28;20042;-66
2023/05/30 06:49:10;;;;;;;3.30;0.40;;;12.30;1.00;;;;;;4990840;28;20096;-67
2023/05/30 06:51:36;;;;;;;2.30;0.40;;;12.20;1.00;;;;;;4995365;28;20049;-67
2023/05/30 06:54:03;;;;;;;3.25;0.40;;;12.30;1.00;;;;;;4991337;28;20448;-67
2023/05/30 06:56:28;;;;;;;5.93;0.50;;;12.30;1.00;;;;;;5009893;28;20449;-66
2023/05/30 06:58:57;;;;;;;2.90;0.32;;;12.50;1.00;;;;;;5027485;28;20145;-66
2023/05/30 07:01:23;;;;;;;5.22;0.65;;;12.50;1.00;;;;;;5008857;28;20157;-66
2023/05/30 07:03:48;;;;;;;3.15;0.30;;;12.50;1.00;;;;;;4975372;28;20492;-66
2023/05/30 07:06:14;;;;;;;1.77;0.20;;;12.40;1.00;;;;;;4993214;28;20066;-67
2023/05/30 07:08:40;;;;;;;1.73;0.20;;;12.40;29.90;;;;;;5023886;28;20058;-67
2023/05/30 07:11:09;;;;;;;3.97;0.30;;;12.50;1.00;;;;;;5024122;28;20106;-67
2023/05/30 07:13:35;;;;;;;1.15;0.20;;;12.70;1.00;;;;;;4975545;28;20117;-66
2023/05/30 07:16:01;;;;;;;1.73;0.20;;;13.00;1.00;;;;;;4979083;28;20713;-66
2023/05/30 07:18:27;;;;;;;2.13;0.20;;;13.20;1.00;;;;;;4996496;28;20388;-67
2023/05/30 07:20:53;;;;;;;1.05;0.08;;;13.40;99.90;;;;;;4996156;28;20049;-67
2023/05/30 07:23:20;;;;;;;0.82;0.13;;;13.60;99.90;;;;;;5025440;28;20357;-67
2023/05/30 07:25:46;;;;;;;1.42;0.10;;;13.80;99.90;;;;;;4994777;28;20395;-67
2023/05/30 07:28:11;;;;;;;0.68;0.10;;;14.00;99.90;;;;;;4992492;28;21090;-67
2023/05/30 07:30:37;;;;;;;0.98;0.10;;;14.60;99.90;;;;;;4986623;28;20699;-67
2023/05/30 07:33:03;;;;;;;0.90;0.10;;;15.00;99.90;;;;;;5025925;28;20049;-67
2023/05/30 07:35:28;;;;;;;1.23;0.10;;;15.60;99.90;;;;;;4994359;28;20049;-66
2023/05/30 07:37:54;;;;;;;1.17;0.10;;;15.60;99.90;;;;;;5024684;28;20466;-67
2023/05/30 07:40:21;;;;;;;1.15;0.10;;;15.70;99.90;;;;;;4992666;28;20058;-67
2023/05/30 07:42:47;;;;;;;2.55;0.20;;;15.60;84.00;;;;;;5009912;28;20045;-67
2023/05/30 07:45:18;;;;;;;1.90;0.10;;;15.30;99.70;;;;;;5025383;28;20285;-66
2023/05/30 07:47:43;;;;;;;1.20;0.10;;;15.20;99.90;;;;;;5005354;28;20041;-67
2023/05/30 07:50:10;;;;;;;1.25;0.10;;;15.00;99.90;;;;;;5025172;28;20072;-67
2023/05/30 07:52:36;;;;;;;1.02;0.00;;;15.10;99.90;;;;;;4994737;28;20041;-67
2023/05/30 07:55:02;;;;;;;2.70;0.10;;;15.10;99.90;;;;;;5007268;28;20045;-66
2023/05/30 07:57:28;;;;;;;0.75;0.10;;;15.20;99.90;;;;;;5023140;28;20064;-67
2023/05/30 07:59:54;;;;;;;0.82;0.10;;;15.00;99.90;;;;;;4991309;28;20123;-66
2023/05/30 08:02:24;;;;;;;1.05;0.20;;;15.00;99.90;;;;;;4991200;28;20546;-67
2023/05/30 08:04:49;;;;;;;0.50;0.00;;;15.00;99.90;;;;;;5008419;28;20041;-66
2023/05/30 08:07:15;;;;;;;0.30;0.10;;;15.00;99.90;;;;;;4995822;28;20042;-67
2023/05/30 08:09:41;;;;;;;0.50;0.03;;;15.10;99.90;;;;;;5007387;28;21364;-67
2023/05/30 08:12:07;;;;;;;2.45;0.10;;;15.20;99.90;;;;;;5025173;28;20363;-67
2023/05/30 08:14:33;;;;;;;0.43;0.10;;;15.40;99.90;;;;;;5025259;28;20486;-67
2023/05/30 08:16:59;;;;;;;1.67;0.10;;;15.50;99.90;;;;;;4990553;28;20116;-67
2023/05/30 08:19:25;;;;;;;1.10;0.15;;;15.40;76.10;;;;;;5008079;28;20062;-66
2023/05/30 08:21:51;;;;;;;0.55;0.10;;;15.20;94.00;;;;;;5010612;28;20305;-65
2023/05/30 08:24:17;;;;;;;0.30;0.00;;;14.90;99.90;;;;;;5011327;28;20052;-66
2023/05/30 08:26:44;;;;;;;3.03;0.10;;;14.60;99.90;;;;;;5021036;28;20435;-66
2023/05/30 08:29:11;;;;;;;1.90;0.10;;;14.40;99.90;;;;;;5027828;28;20560;-66
2023/05/30 08:31:37;;;;;;;1.65;0.10;;;14.10;99.90;;;;;;5028057;28;20419;-66
2023/05/30 08:34:03;;;;;;;1.33;0.10;;;13.90;99.90;;;;;;5028355;28;20057;-66
2023/05/30 08:36:29;;;;;;;0.82;0.20;;;13.90;99.90;;;;;;4999300;28;20089;-65
2023/05/30 08:38:55;;;;;;;0.60;0.10;;;13.90;99.90;;;;;;4999345;28;21391;-65
2023/05/30 08:41:22;;;;;;;0.90;0.10;;;13.90;99.90;;;;;;5013294;28;20037;-66
2023/05/30 08:44:01;;;;;;;0.65;0.10;;;14.00;99.90;;;;;;4998124;28;20077;-66
2023/05/30 08:46:28;;;;;;;1.40;0.10;;;14.20;99.90;;;;;;5030710;28;21576;-66
2023/05/30 08:48:55;;;;;;;1.98;0.20;;;14.60;99.90;;;;;;5022038;28;20050;-66
2023/05/30 08:51:24;;;;;;;2.08;0.20;;;14.70;99.90;;;;;;4995670;28;20060;-65
2023/05/30 08:53:56;;;;;;;2.42;0.32;;;14.90;99.90;;;;;;5005862;28;20072;-66
2023/05/30 08:56:29;;;;;;;1.40;0.20;;;14.90;99.90;;;;;;4982609;28;20064;-67
2023/05/30 08:58:56;;;;;;;;;;;15.00;99.90;;;;;;5012076;28;20683;-67
2023/05/30 09:01:23;;;;;;;2.92;0.20;;;15.10;99.90;;;;;;5028637;28;19917;-66
2023/05/30 09:03:50;;;;;;;2.15;0.20;;;15.20;99.90;;;;;;4994308;28;20265;-66
2023/05/30 09:06:18;;;;;;;3.35;0.30;;;15.30;99.90;;;;;;4995820;28;20208;-66
2023/05/30 09:08:45;;;;;;;2.10;0.20;;;15.20;99.90;;;;;;5027888;28;20049;-66
2023/05/30 09:11:13;;;;;;;2.05;0.20;;;15.20;99.90;;;;;;5012944;28;20042;-66
2023/05/30 09:13:41;;;;;;;1.45;0.10;;;15.20;99.90;;;;;;4996220;28;20449;-66
2023/05/30 09:16:08;;;;;;;1.48;0.20;;;15.40;99.90;;;;;;4995655;28;20049;-66
2023/05/30 09:18:35;;;;;;;1.10;0.10;;;15.60;99.90;;;;;;5005612;28;20436;-66
2023/05/30 09:21:01;;;;;;;1.08;0.30;;;15.60;99.20;;;;;;5026897;28;20049;-66
2023/05/30 09:23:29;;;;;;;0.93;0.20;;;15.80;50.90;;;;;;4997105;28;20483;-66
2023/05/30 09:25:59;;;;;;;1.13;0.17;;;15.90;10.30;;;;;;5010656;28;20045;-66
2023/05/30 09:28:27;;;;;;;1.55;0.08;;;15.80;1.00;;;;;;5005490;28;20069;-66
2023/05/30 09:30:54;;;;;;;1.65;0.28;;;15.70;1.00;;;;;;4994441;28;20104;-66
2023/05/30 09:33:20;;;;;;;1.05;0.10;;;15.90;6.40;;;;;;4995343;28;20137;-66
2023/05/30 09:35:49;;;;;;;1.65;0.10;;;16.00;1.00;;;;;;5004875;28;20194;-65
2023/05/30 09:38:15;;;;;;;1.15;0.10;;;15.80;1.00;;;;;;4995693;28;20073;-66
2023/05/30 09:40:41;;;;;;;2.28;0.20;;;15.40;1.00;;;;;;4996696;28;20132;-66
2023/05/30 09:43:07;;;;;;;1.67;0.28;;;15.20;4.80;;;;;;5025287;28;20045;-65
2023/05/30 09:45:33;;;;;;;2.00;0.60;;;15.20;92.90;;;;;;5025158;28;20420;-66
2023/05/30 09:47:59;;;;;;;0.80;0.20;;;15.60;99.90;;;;;;4992343;28;20081;-66
2023/05/30 09:50:32;;;;;;;1.67;0.25;;;15.80;41.60;;;;;;5025234;28;20574;-66
2023/05/30 09:53:15;;;;;;;0.75;0.20;;;15.90;20.40;;;;;;4992636;28;20049;-66
2023/05/30 09:55:44;;;;;;;1.27;0.10;;;16.10;1.00;;;;;;4991886;28;20068;-66
2023/05/30 09:58:24;;;;;;;0.98;0.20;;;16.70;1.00;;;;;;5008471;28;20049;-66
2023/05/30 10:00:52;;;;;;;1.35;0.10;;;16.80;1.00;;;;;;5011253;28;20075;-65
2023/05/30 10:03:21;;;;;;;1.00;0.20;;;16.60;1.00;;;;;;5011107;28;20372;-67
2023/05/30 10:05:47;;;;;;;0.80;0.20;;;16.40;1.00;;;;;;5029665;28;20073;-66
2023/05/30 10:08:13;;;;;;;0.93;0.10;;;16.40;1.00;;;;;;4993553;28;20041;-66
2023/05/30 10:10:40;;;;;;;0.40;0.10;;;16.40;35.60;;;;;;4994281;28;20558;-66
2023/05/30 10:13:06;;;;;;;1.27;0.10;;;16.60;46.30;;;;;;4993856;28;20046;-66
2023/05/30 10:15:32;;;;;;;0.60;0.10;;;16.80;32.00;;;;;;5025643;28;20076;-66
2023/05/30 10:18:09;;;;;;;1.60;0.10;;;16.70;1.00;;;;;;4994285;28;20053;-67
2023/05/30 10:20:37;;;;;;;0.88;0.10;;;17.30;1.00;;;;;;5025574;28;20045;-67
2023/05/30 10:23:06;;;;;;;0.77;0.10;;;17.90;1.00;;;;;;4995288;28;20051;-67
2023/05/30 10:25:35;;;;;;;1.58;0.10;;;18.00;1.00;;;;;;4993680;28;20443;-67
2023/05/30 10:28:03;;;;;;;1.45;0.20;;;18.10;99.90;;;;;;5020004;28;20580;-66
2023/05/30 10:30:33;;;;;;;2.20;0.38;;;17.70;99.90;;;;;;5024568;28;20356;-65
2023/05/30 10:33:06;;;;;;;0.60;0.10;;;17.50;1.00;;;;;;5009604;28;20120;-67
2023/05/30 10:35:33;;;;;;;2.28;0.20;;;17.40;1.00;;;;;;5011060;28;20321;-66
2023/05/30 10:38:00;;;;;;;1.55;0.10;;;17.30;1.00;;;;;;5010425;28;20120;-66
2023/05/30 10:40:52;;;;;;;0.85;0.20;;;17.30;1.00;;;;;;5010414;28;20523;-67
2023/05/30 10:43:33;;;;;;;0.93;0.20;;;17.60;99.90;;;;;;5010458;28;20431;-66
2023/05/30 10:46:36;;;;;;;1.77;0.20;;;17.50;99.90;;;;;;5043525;28;20103;-66
2023/05/30 10:49:06;;;;;;;0.85;0.10;;;17.60;99.90;;;;;;5027181;28;20427;-66
2023/05/30 10:51:58;;;;;;;1.10;0.10;;;17.60;99.90;;;;;;5011394;28;20053;-66
2023/05/30 10:54:24;;;;;;;0.80;0.00;;;17.40;99.90;;;;;;5026489;28;20056;-65
2023/05/30 10:56:51;;;;;;;0.80;0.10;;;17.40;99.90;;;;;;5010639;28;20392;-65
2023/05/30 10:59:20;;;;;;;1.30;0.10;;;17.40;99.90;;;;;;5010587;28;20053;-65
2023/05/30 11:02:02;;;;;;;1.65;0.10;;;17.80;99.90;;;;;;5009776;28;20220;-66
2023/05/30 11:04:42;;;;;;;1.10;0.10;;;18.60;99.90;;;;;;5043340;28;20060;-66
2023/05/30 11:07:10;;;;;;;0.50;0.10;;;18.80;99.90;;;;;;5009966;28;20059;-66
2023/05/30 11:09:58;;;;;;;0.60;0.10;;;18.50;99.90;;;;;;5009562;28;20080;-66
2023/05/30 11:12:24;;;;;;;1.10;0.10;;;18.10;99.90;;;;;;5011114;28;20269;-65
2023/05/30 11:14:58;;;;;;;0.70;0.10;;;17.80;99.90;;;;;;5009931;28;20224;-66
2023/05/30 11:17:37;;;;;;;0.22;0.10;;;17.80;99.90;;;;;;5026066;28;20049;-66
2023/05/30 11:20:22;;;;;;;0.65;0.20;;;17.20;99.90;;;;;;5009949;28;20125;-66
2023/05/30 11:23:03;;;;;;;4.45;0.20;;;16.70;99.90;;;;;;5026928;28;20029;-65
2023/05/30 11:25:32;;;;;;;1.30;0.20;;;16.40;99.90;;;;;;5024806;28;20230;-66
2023/05/30 11:28:04;;;;;;;0.30;0.17;;;16.20;99.90;;;;;;5008194;28;20345;-65
2023/05/30 11:30:40;;;;;;;1.15;0.10;;;16.20;99.90;;;;;;4995641;28;20045;-66
2023/05/30 11:33:10;;;;;;;1.48;0.20;;;16.50;99.90;;;;;;5008800;28;20140;-66
2023/05/30 11:35:36;;;;;;;0.82;0.10;;;16.90;99.90;;;;;;4994854;28;20630;-66
2023/05/30 11:38:02;;;;;;;0.40;0.10;;;17.10;99.90;;;;;;4994516;28;20045;-66
2023/05/30 11:40:28;;;;;;;0.68;0.10;;;17.50;99.90;;;;;;5010054;28;20045;-67
2023/05/30 11:42:55;;;;;;;0.68;0.10;;;17.70;99.90;;;;;;4992261;28;20034;-66
2023/05/30 11:45:30;;;;;;;1.63;0.10;;;17.80;99.90;;;;;;4993950;28;20100;-66
2023/05/30 11:48:07;;;;;;;0.80;0.10;;;17.70;99.90;;;;;;4992613;28;20080;-67
2023/05/30 11:50:40;;;;;;;1.08;0.13;;;18.00;99.90;;;;;;5009523;28;20041;-66
2023/05/30 11:53:16;;;;;;;0.70;0.20;;;17.90;99.90;;;;;;5025724;28;20125;-66
2023/05/30 11:55:46;;;;;;;1.00;0.15;;;17.90;99.90;;;;;;5026427;28;20945;-66
2023/05/30 11:58:17;;;;;;;0.93;0.20;;;18.20;99.90;;;;;;5028767;28;20139;-66
2023/05/30 12:00:44;;;;;;;1.50;0.20;;;18.50;99.90;;;;;;4995481;28;20103;-67
2023/05/30 12:03:16;;;;;;;0.82;0.20;;;18.60;99.90;;;;;;4994589;28;20053;-66
2023/05/30 12:05:47;;;;;;;0.22;0.10;;;18.80;99.90;;;;;;4996243;28;20511;-66
2023/05/30 12:08:13;;;;;;;0.60;0.10;;;18.70;99.90;;;;;;5046229;28;20123;-66
2023/05/30 12:10:39;;;;;;;0.90;0.10;;;18.60;99.90;;;;;;4997294;28;20253;-66
2023/05/30 12:13:06;;;;;;;1.42;0.10;;;18.40;99.90;;;;;;5027176;28;20508;-66
2023/05/30 12:15:32;;;;;;;0.22;0.10;;;18.70;99.90;;;;;;5011159;28;20485;-66
2023/05/30 12:18:01;;;;;;;0.35;0.00;;;19.30;99.90;;;;;;5027857;28;20059;-66
2023/05/30 12:20:27;;;;;;;0.38;0.10;;;19.40;99.90;;;;;;5027457;28;20054;-66
2023/05/30 12:22:53;;;;;;;0.60;0.10;;;19.40;85.60;;;;;;5027032;28;20560;-66
2023/05/30 12:25:25;;;;;;;0.63;0.10;;;19.50;19.70;;;;;;5028321;28;20208;-66
2023/05/30 12:27:51;;;;;;;0.03;0.00;;;19.40;1.00;;;;;;4998600;28;20507;-66
2023/05/30 12:30:19;;;;;;;0.30;0.10;;;19.50;14.10;;;;;;5014032;28;20129;-66
2023/05/30 12:32:57;;;;;;;1.27;0.10;;;19.70;1.00;;;;;;4996850;28;20038;-66
2023/05/30 12:35:26;;;;;;;1.20;0.20;;;19.70;1.00;;;;;;5001634;28;20700;-67
2023/05/30 12:37:59;;;;;;;1.55;0.10;;;19.60;99.90;;;;;;5029219;28;20038;-66
2023/05/30 12:40:25;;;;;;;1.95;0.20;;;19.60;92.80;;;;;;5029441;28;20065;-65
2023/05/30 12:42:56;;;;;;;0.98;0.20;;;19.50;99.90;;;;;;4997302;28;20041;-67
2023/05/30 12:45:22;;;;;;;1.35;0.40;;;19.50;99.90;;;;;;5016223;28;20126;-66
2023/05/30 12:47:48;;;;;;;1.60;0.30;;;19.40;76.10;;;;;;4999468;28;20046;-67
2023/05/30 12:50:14;;;;;;;0.80;0.10;;;19.10;75.80;;;;;;5029994;28;20570;-66